LGAVLGPZ

Guest
Details From LGAV - Athens Intl Airport Elefterios Venizel
To LGPZ - AKTIO
Flight Number -
Tags generated
Created
Modified
Stats Distance 161 nm / 299 km
Max Altitude 10,900 ft / 3,322 m
Waypoints 3
Social Downloads 2
Likes 0
Share VATSIM

Download

Looking for another format? Having issues loading an existing format? Contact us
Advertisement - Login to hide

Notes

Basic altitude profile: - Ascent Rate: 3500ft/min - Ascent Speed: 450kts - Cruise Altitude: 35000ft - Cruise Speed: 450kts - Descent Rate: 2500ft/min - Descent Speed: 450kts Options: - Use NATs: yes - Use PACOTS: yes - Use low airways: yes - Use high airways: yes

Route

LGAV ELVAS LGPZ

ID Type Via Altitude Latitude Longitude Leg Dist Tot Dist Heading (true) Name
O LGAV APT - 0 ft / 0 m 37.93636˚ 23.94447˚ - 0 nm - Athens Intl Airport Elefterios Venizel
ELVAS FIX - 10,900 ft / 3,322 m 38.52472˚ 21.84194˚ 105 nm 105 nm 290° / 289° -
O LGPZ APT - 0 ft / 0 m 38.92547˚ 20.76531˚ 55 nm 161 nm 296° / 295° AKTIO

Altitude Profile

Advertisement - Login to hide

LGAV

Details ICAO LGAV (ATH)
Name Athens Intl Airport Elefterios Venizel
Region Greece
Timezone Europe/Athens (UTC+2.0)
Stats Elevation 308 ft / 94 m (AMSL)
Location 37.936357° 23.944470°
Runways 2
Magnetic Variation 4.485° E

METAR

LGAV 170750Z 21007KT 9999 FEW015 SCT035 16/13 Q1009 NOSIG

Decode

TAF

TAF TAF LGAV 170500Z 1706/1806 19017KT 9999 FEW018 SCT025 BKN070 PROB30 TEMPO 1706/1708 5000 RA FEW010 BKN025 OVC070 BECMG 1710/1712 25015KT

Decode

Departure Runways

ID Width Length Bearing (true) Bearing (mag) Surface Threshold Offset Overrun Length
03L 148 ft / 45 m 12,474 ft / 3,802 m 36.51° 32.03° Asphalt 984 ft / 300 m 393 ft / 120 m
03R 148 ft / 45 m 13,131 ft / 4,002 m 36.52° 32.04° Asphalt 984 ft / 300 m 393 ft / 120 m
21L 148 ft / 45 m 13,131 ft / 4,002 m 216.54° 212.06° Asphalt 984 ft / 300 m 393 ft / 120 m
21R 148 ft / 45 m 12,474 ft / 3,802 m 216.53° 212.05° Asphalt 984 ft / 300 m 393 ft / 120 m

LGPZ

Details ICAO LGPZ (PVK)
Name AKTIO
Region Greece
Timezone Europe/Athens (UTC+2.0)
Stats Elevation 11 ft / 3 m (AMSL)
Location 38.925465° 20.765311°
Runways 1
Magnetic Variation 4.160° E

METAR

LGPZ 170750Z 29006KT 9999 BKN020 BKN070 13/12 Q1010 BLU

Decode

TAF

TAF TAF LGPZ 170500Z 1706/1806 28010KT 9999 SCT020 BKN080 PROB40 TEMPO 1706/1806 6000 RA PROB30 TEMPO 1706/1710 TSRA FEW016CB SCT020 BKN080 BECMG 1722/1724 05006KT

Decode

Destination Runways

ID Width Length Bearing (true) Bearing (mag) Surface Threshold Offset Overrun Length
07L 148 ft / 45 m 9,404 ft / 2,866 m 67.79° 63.63° Asphalt 0 ft / 0 m 80 ft / 24 m
25R 148 ft / 45 m 9,404 ft / 2,866 m 247.81° 243.65° Asphalt 492 ft / 150 m 380 ft / 116 m

Popular Alternatives